Time;durP1;ratioP1;P1;durP2;ratioP2;P2;SDS_P1;SDS_P2;PMS_P1;PMS_P2;Temp;Humidity;BMP_temperature;BMP_pressure;BME280_temperature;BME280_humidity;BME280_pressure;Samples;Min_cycle;Max_cycle;Signal;HPM_P1;HPM_P2
2022/08/01 00:02:07;;;;;;;11.82;6.13;;;18.20;99.90;;;;;;5022014;28;20037;-71
2022/08/01 00:04:33;;;;;;;11.52;5.97;;;18.30;99.90;;;;;;5027748;28;20397;-71
2022/08/01 00:06:58;;;;;;;8.82;7.47;;;18.30;99.90;;;;;;5026709;28;20142;-71
2022/08/01 00:09:24;;;;;;;9.68;6.47;;;18.50;99.90;;;;;;5023434;28;20050;-72
2022/08/01 00:11:50;;;;;;;9.00;6.60;;;18.20;99.90;;;;;;5024330;28;20064;-71
2022/08/01 00:14:16;;;;;;;9.10;6.15;;;18.10;99.90;;;;;;5026519;28;20053;-71
2022/08/01 00:16:41;;;;;;;10.50;6.35;;;18.40;99.90;;;;;;5013444;28;20053;-72
2022/08/01 00:19:07;;;;;;;8.85;6.07;;;18.20;99.90;;;;;;5022118;28;20413;-71
2022/08/01 00:21:32;;;;;;;10.15;5.22;;;18.40;99.90;;;;;;5006667;28;20033;-72
2022/08/01 00:23:59;;;;;;;9.27;5.45;;;18.00;99.90;;;;;;5026630;28;20152;-71
2022/08/01 00:26:24;;;;;;;7.60;4.75;;;18.40;99.90;;;;;;5024487;28;20068;-72
2022/08/01 00:28:50;;;;;;;10.38;5.97;;;18.40;99.90;;;;;;5025602;28;20395;-71
2022/08/01 00:31:16;;;;;;;7.63;4.35;;;18.30;99.90;;;;;;5022617;28;20479;-71
2022/08/01 00:33:41;;;;;;;5.30;4.28;;;18.30;99.90;;;;;;5024140;28;20235;-72
2022/08/01 00:36:07;;;;;;;7.20;5.00;;;18.10;99.90;;;;;;5027064;28;20502;-71
2022/08/01 00:38:33;;;;;;;5.93;4.38;;;17.90;99.90;;;;;;5025052;28;20033;-72
2022/08/01 00:40:58;;;;;;;5.60;3.53;;;18.10;99.90;;;;;;5024878;28;20053;-72
2022/08/01 00:43:24;;;;;;;9.15;4.90;;;17.90;99.90;;;;;;5022195;28;20037;-71
2022/08/01 00:45:50;;;;;;;6.45;4.78;;;18.40;99.90;;;;;;5026179;28;20045;-71
2022/08/01 00:48:15;;;;;;;5.45;3.20;;;17.90;99.90;;;;;;5023999;28;20100;-71
2022/08/01 00:50:41;;;;;;;6.97;4.53;;;18.10;99.90;;;;;;5020452;28;20048;-71
2022/08/01 00:53:07;;;;;;;5.57;3.85;;;18.20;99.90;;;;;;5018139;28;20051;-72
2022/08/01 00:55:33;;;;;;;7.63;3.72;;;17.90;99.90;;;;;;5022547;28;20088;-72
2022/08/01 00:57:59;;;;;;;5.22;3.95;;;18.10;99.90;;;;;;5025445;28;20114;-71
2022/08/01 01:00:25;;;;;;;6.38;3.50;;;18.20;99.90;;;;;;5006857;28;20042;-71
2022/08/01 01:02:51;;;;;;;5.25;3.85;;;18.20;99.90;;;;;;5022422;28;20052;-73
2022/08/01 01:05:17;;;;;;;5.07;3.63;;;17.90;99.90;;;;;;5026722;28;20123;-71
2022/08/01 01:08:08;;;;;;;5.22;3.78;;;17.80;99.90;;;;;;5024070;28;20077;-72
2022/08/01 01:10:55;;;;;;;6.68;3.83;;;18.20;99.90;;;;;;5012058;28;20064;-71
2022/08/01 01:13:30;;;;;;;7.63;3.13;;;17.90;99.90;;;;;;5023380;28;21176;-71
2022/08/01 01:15:59;;;;;;;7.05;3.20;;;17.90;99.90;;;;;;5020734;28;20041;-71
2022/08/01 01:18:32;;;;;;;5.28;3.20;;;17.90;99.90;;;;;;5026217;28;20033;-71
2022/08/01 01:21:08;;;;;;;5.40;3.85;;;18.10;99.90;;;;;;5023379;28;20189;-71
2022/08/01 01:24:10;;;;;;;5.50;2.70;;;17.70;99.90;;;;;;5021264;28;20037;-72
2022/08/01 01:26:59;;;;;;;3.97;2.28;;;17.90;99.90;;;;;;5012249;28;20049;-71
2022/08/01 01:29:28;;;;;;;4.93;2.03;;;17.60;99.90;;;;;;5024206;28;20064;-72
2022/08/01 01:32:12;;;;;;;3.33;1.52;;;17.60;99.90;;;;;;5020346;28;20086;-71
2022/08/01 01:34:42;;;;;;;4.05;1.52;;;17.80;99.90;;;;;;5024599;28;20045;-72
2022/08/01 01:37:14;;;;;;;3.42;1.70;;;17.60;99.90;;;;;;5025540;28;20100;-72
2022/08/01 01:39:41;;;;;;;3.15;1.40;;;17.70;99.90;;;;;;5022108;28;20041;-72
2022/08/01 01:42:07;;;;;;;2.88;1.58;;;17.60;99.90;;;;;;5022217;28;20225;-73
2022/08/01 01:44:34;;;;;;;3.00;1.27;;;17.40;99.90;;;;;;5053080;23;20044;-78
2022/08/01 01:47:00;;;;;;;4.03;1.27;;;17.40;99.90;;;;;;5076521;28;20486;-77
2022/08/01 01:49:27;;;;;;;5.63;1.88;;;17.40;99.90;;;;;;5075081;28;20094;-77
2022/08/01 01:51:56;;;;;;;2.67;1.27;;;17.30;99.90;;;;;;5049945;28;20386;-77
2022/08/01 01:54:24;;;;;;;8.43;1.88;;;17.40;99.90;;;;;;5046504;28;20154;-77
2022/08/01 01:56:51;;;;;;;3.30;1.80;;;17.40;99.90;;;;;;5066926;28;20132;-77
2022/08/01 01:59:21;;;;;;;2.33;1.20;;;17.60;99.90;;;;;;5067490;28;20044;-78
2022/08/01 02:01:51;;;;;;;6.40;2.33;;;17.50;99.90;;;;;;5084127;28;20486;-77
2022/08/01 02:04:16;;;;;;;;;;;17.30;99.90;;;;;;5065270;28;20127;-78
2022/08/01 02:06:45;;;;;;;5.38;1.60;;;17.60;99.90;;;;;;5084946;28;20023;-77
2022/08/01 02:09:14;;;;;;;3.40;1.60;;;17.30;99.90;;;;;;5067354;28;20448;-78
2022/08/01 02:11:40;;;;;;;4.82;1.60;;;17.40;99.90;;;;;;5083801;28;20055;-77
2022/08/01 02:14:08;;;;;;;4.32;1.67;;;17.20;99.90;;;;;;5066282;28;20044;-77
2022/08/01 02:16:41;;;;;;;3.15;1.85;;;17.40;99.90;;;;;;5084331;28;20059;-77
2022/08/01 02:19:06;;;;;;;5.18;1.67;;;17.50;99.90;;;;;;5083043;28;20217;-78
2022/08/01 02:21:57;;;;;;;2.63;1.90;;;17.10;99.90;;;;;;5065680;28;20158;-77
2022/08/01 02:24:25;;;;;;;6.32;2.38;;;17.10;99.90;;;;;;5064289;28;20043;-77
2022/08/01 02:26:54;;;;;;;8.43;3.53;;;17.50;99.90;;;;;;5063351;28;20143;-77
2022/08/01 02:29:29;;;;;;;5.78;2.15;;;17.40;99.90;;;;;;5064460;28;20712;-77
2022/08/01 02:31:56;;;;;;;11.93;3.63;;;17.30;99.90;;;;;;5074940;28;20044;-77
2022/08/01 02:34:27;;;;;;;6.75;2.38;;;17.40;99.90;;;;;;5081503;28;20486;-76
2022/08/01 02:36:56;;;;;;;10.80;4.00;;;17.30;99.90;;;;;;5064631;28;20126;-77
2022/08/01 02:39:23;;;;;;;6.35;1.90;;;17.30;99.90;;;;;;5053205;28;20055;-76
2022/08/01 02:41:57;;;;;;;6.18;2.38;;;17.00;99.90;;;;;;5083492;28;20036;-75
2022/08/01 02:44:26;;;;;;;6.72;2.50;;;17.30;99.90;;;;;;5065081;28;20101;-76
2022/08/01 02:46:57;;;;;;;7.13;1.95;;;17.00;99.90;;;;;;5078954;28;20101;-76
2022/08/01 02:49:25;;;;;;;5.68;2.63;;;17.30;99.90;;;;;;5080964;28;20104;-76
2022/08/01 02:51:54;;;;;;;10.23;3.10;;;17.00;99.90;;;;;;5066498;28;20048;-76
2022/08/01 02:54:22;;;;;;;7.13;2.15;;;17.20;99.90;;;;;;5067940;28;20079;-77
2022/08/01 02:56:49;;;;;;;10.70;2.70;;;17.10;99.90;;;;;;5066463;28;20047;-75
2022/08/01 02:59:21;;;;;;;7.30;3.17;;;17.10;99.90;;;;;;5067170;28;20046;-76
2022/08/01 03:01:48;;;;;;;8.32;2.78;;;17.00;99.90;;;;;;5039320;28;20543;-75
2022/08/01 03:04:17;;;;;;;5.93;2.47;;;16.80;99.90;;;;;;5064363;28;20113;-76
2022/08/01 03:06:44;;;;;;;6.80;2.92;;;16.90;99.90;;;;;;5066728;28;20098;-76
2022/08/01 03:09:11;;;;;;;5.63;2.22;;;16.80;99.90;;;;;;5063840;28;20051;-76
2022/08/01 03:11:39;;;;;;;12.38;4.50;;;16.90;99.90;;;;;;5065209;28;20097;-76
2022/08/01 03:14:07;;;;;;;5.93;2.45;;;17.00;99.90;;;;;;5086850;28;20413;-75
2022/08/01 03:16:36;;;;;;;13.80;3.67;;;17.00;99.90;;;;;;5085267;28;20036;-76
2022/08/01 03:19:04;;;;;;;13.25;3.20;;;16.90;99.90;;;;;;5063309;28;20086;-75
2022/08/01 03:21:31;;;;;;;12.18;3.67;;;16.80;99.90;;;;;;5049121;28;20115;-75
2022/08/01 03:23:59;;;;;;;13.18;4.60;;;17.00;99.90;;;;;;5069143;28;20036;-76
2022/08/01 03:26:30;;;;;;;16.23;4.05;;;16.80;99.90;;;;;;5048888;28;20476;-77
2022/08/01 03:28:59;;;;;;;8.27;3.40;;;17.10;99.90;;;;;;5061853;28;20477;-76
2022/08/01 03:31:26;;;;;;;8.57;4.10;;;17.00;99.90;;;;;;5066224;28;20050;-75
2022/08/01 03:33:52;;;;;;;10.90;4.05;;;16.80;99.90;;;;;;5084751;28;20043;-76
2022/08/01 03:36:22;;;;;;;8.35;3.92;;;16.80;99.90;;;;;;5086351;28;20127;-76
2022/08/01 03:38:50;;;;;;;9.77;3.58;;;16.80;99.90;;;;;;5082316;28;20039;-76
2022/08/01 03:41:21;;;;;;;10.95;3.25;;;16.70;99.90;;;;;;5083477;28;20085;-76
2022/08/01 03:44:05;;;;;;;10.23;4.03;;;17.10;99.90;;;;;;5069166;28;20079;-75
2022/08/01 03:46:43;;;;;;;10.57;4.07;;;16.80;99.90;;;;;;5081998;28;20124;-76
2022/08/01 03:49:22;;;;;;;17.52;4.13;;;17.00;99.90;;;;;;5086468;28;20394;-76
2022/08/01 03:51:50;;;;;;;10.23;3.53;;;16.70;99.90;;;;;;5086637;28;20123;-75
2022/08/01 03:54:27;;;;;;;19.73;5.35;;;16.70;99.90;;;;;;5070566;28;20056;-77
2022/08/01 03:56:54;;;;;;;9.52;3.33;;;16.90;99.90;;;;;;5086440;28;20032;-77
2022/08/01 03:59:21;;;;;;;10.98;3.78;;;16.90;99.90;;;;;;5087398;28;20047;-78
2022/08/01 04:01:48;;;;;;;16.85;3.70;;;16.60;99.90;;;;;;5058593;28;20048;-79
2022/08/01 04:04:14;;;;;;;14.65;3.65;;;16.60;99.90;;;;;;5085113;28;20044;-76
2022/08/01 04:06:40;;;;;;;21.23;5.55;;;16.60;99.90;;;;;;5082310;28;20082;-77
2022/08/01 04:09:10;;;;;;;13.77;3.88;;;16.60;99.90;;;;;;5084688;28;20051;-77
2022/08/01 04:11:36;;;;;;;14.18;3.92;;;16.60;99.90;;;;;;5087630;28;20596;-77
2022/08/01 04:14:03;;;;;;;9.80;3.47;;;16.50;99.90;;;;;;5086390;28;20044;-77
2022/08/01 04:16:28;;;;;;;13.52;3.92;;;16.70;99.90;;;;;;5065556;28;20042;-76
2022/08/01 04:18:54;;;;;;;22.88;5.85;;;16.70;99.90;;;;;;5067199;28;20044;-76
2022/08/01 04:21:24;;;;;;;25.83;5.10;;;16.70;99.90;;;;;;5084917;28;20108;-77
2022/08/01 04:23:52;;;;;;;15.45;5.20;;;16.60;99.90;;;;;;5083637;28;20051;-76
2022/08/01 04:26:19;;;;;;;18.60;3.00;;;16.40;99.90;;;;;;5084947;28;20150;-77
2022/08/01 04:28:47;;;;;;;14.65;2.97;;;16.40;99.90;;;;;;5083957;28;20040;-76
2022/08/01 04:31:15;;;;;;;22.25;3.83;;;16.50;99.90;;;;;;5068575;28;20082;-78
2022/08/01 04:33:45;;;;;;;14.50;3.60;;;16.60;99.90;;;;;;5085926;28;20128;-76
2022/08/01 04:36:14;;;;;;;22.95;4.35;;;16.40;99.90;;;;;;5081169;28;20056;-77
2022/08/01 04:38:45;;;;;;;19.13;4.28;;;16.50;99.90;;;;;;5064873;28;20170;-77
2022/08/01 04:41:12;;;;;;;19.27;3.72;;;16.50;99.90;;;;;;5086344;28;20055;-77
2022/08/01 04:43:38;;;;;;;13.65;2.63;;;16.50;99.90;;;;;;5085594;28;20044;-77
2022/08/01 04:46:06;;;;;;;15.93;3.83;;;16.30;99.90;;;;;;5084722;28;20563;-76
2022/08/01 04:48:36;;;;;;;16.65;4.60;;;16.40;99.90;;;;;;5066531;28;20047;-76
2022/08/01 04:51:03;;;;;;;11.63;2.53;;;16.30;99.90;;;;;;5084464;28;20096;-77
2022/08/01 04:53:28;;;;;;;18.67;3.08;;;16.40;99.90;;;;;;5066998;28;20065;-76
2022/08/01 04:55:54;;;;;;;19.35;3.88;;;16.40;99.90;;;;;;5083589;28;20028;-76
2022/08/01 04:58:19;;;;;;;12.13;3.95;;;16.50;99.90;;;;;;5084148;28;20047;-76
2022/08/01 05:00:46;;;;;;;15.43;2.92;;;16.40;99.90;;;;;;5084276;28;20222;-75
2022/08/01 05:03:11;;;;;;;19.20;3.90;;;16.40;99.90;;;;;;5065231;28;20043;-75
2022/08/01 05:05:37;;;;;;;18.98;3.60;;;16.40;99.90;;;;;;5082491;28;20048;-75
2022/08/01 05:08:03;;;;;;;20.55;6.28;;;16.40;99.90;;;;;;5081656;28;20059;-75
2022/08/01 05:10:29;;;;;;;23.15;5.25;;;16.40;99.90;;;;;;5083900;28;20398;-76
2022/08/01 05:12:54;;;;;;;21.85;4.32;;;16.40;99.90;;;;;;5066334;28;20081;-75
2022/08/01 05:15:21;;;;;;;16.73;3.30;;;16.40;99.90;;;;;;5063485;28;20040;-76
2022/08/01 05:17:46;;;;;;;17.58;4.80;;;16.30;99.90;;;;;;5083518;28;20059;-76
2022/08/01 05:20:12;;;;;;;13.63;2.95;;;16.30;99.90;;;;;;5053944;28;20539;-76
2022/08/01 05:22:38;;;;;;;17.63;3.47;;;16.30;99.90;;;;;;5049666;28;20580;-76
2022/08/01 05:25:04;;;;;;;17.52;5.03;;;16.40;99.90;;;;;;5080766;28;20406;-76
2022/08/01 05:27:31;;;;;;;15.50;4.97;;;16.30;99.90;;;;;;5044577;28;20040;-76
2022/08/01 05:29:57;;;;;;;16.73;2.53;;;16.40;99.90;;;;;;5083198;28;20504;-75
2022/08/01 05:32:22;;;;;;;22.20;4.20;;;16.30;99.90;;;;;;5065583;28;20626;-76
2022/08/01 05:34:48;;;;;;;14.45;3.30;;;16.40;99.90;;;;;;5083277;28;20378;-76
2022/08/01 05:37:14;;;;;;;11.27;3.45;;;16.30;99.90;;;;;;5084603;28;20078;-76
2022/08/01 05:39:39;;;;;;;14.45;3.05;;;16.50;99.90;;;;;;5064648;28;20076;-74
2022/08/01 05:42:05;;;;;;;13.23;2.70;;;16.40;99.90;;;;;;5062896;28;20414;-75
2022/08/01 05:44:31;;;;;;;23.58;3.92;;;16.30;99.90;;;;;;5035345;28;20128;-76
2022/08/01 05:46:57;;;;;;;18.23;4.40;;;16.30;99.90;;;;;;5058102;28;20556;-76
2022/08/01 05:49:23;;;;;;;16.17;3.58;;;16.40;99.90;;;;;;5061892;28;20040;-77
2022/08/01 05:51:49;;;;;;;23.23;4.88;;;16.50;99.90;;;;;;5043578;28;20116;-76
2022/08/01 05:54:14;;;;;;;15.65;3.10;;;16.40;99.90;;;;;;5058203;28;20036;-76
2022/08/01 05:56:40;;;;;;;18.10;3.83;;;16.40;99.90;;;;;;5062652;28;20040;-77
2022/08/01 05:59:06;;;;;;;13.77;2.70;;;16.50;99.90;;;;;;5062944;28;20089;-78
2022/08/01 06:01:32;;;;;;;14.80;2.40;;;16.40;99.90;;;;;;5062737;28;20097;-76
2022/08/01 06:03:57;;;;;;;18.30;3.22;;;16.50;99.90;;;;;;5062371;28;20812;-77
2022/08/01 06:06:23;;;;;;;17.80;4.68;;;16.40;99.90;;;;;;5060441;28;20664;-75
2022/08/01 06:08:50;;;;;;;18.15;2.97;;;16.50;99.90;;;;;;5050240;28;20394;-76
2022/08/01 06:11:15;;;;;;;23.58;4.25;;;16.50;99.90;;;;;;5064215;28;20038;-77
2022/08/01 06:13:41;;;;;;;16.10;3.28;;;16.60;99.90;;;;;;5061678;28;20515;-76
2022/08/01 06:16:08;;;;;;;15.57;3.03;;;16.40;99.90;;;;;;5060933;28;20040;-76
2022/08/01 06:18:33;;;;;;;14.73;2.53;;;16.50;99.90;;;;;;5061529;28;20097;-75
2022/08/01 06:20:59;;;;;;;22.30;4.55;;;16.60;99.90;;;;;;5059997;28;20051;-77
2022/08/01 06:23:25;;;;;;;16.80;3.38;;;16.70;99.90;;;;;;5045894;28;20054;-76
2022/08/01 06:25:54;;;;;;;13.18;3.08;;;16.60;99.90;;;;;;5060867;28;20040;-77
2022/08/01 06:28:21;;;;;;;20.17;3.88;;;16.70;99.90;;;;;;5061895;28;20044;-78
2022/08/01 06:30:46;;;;;;;15.10;3.22;;;16.70;99.90;;;;;;5045965;28;20048;-79
2022/08/01 06:33:12;;;;;;;22.50;5.47;;;16.70;99.90;;;;;;5063476;28;20055;-79
2022/08/01 06:35:38;;;;;;;24.52;3.95;;;16.60;99.90;;;;;;5059850;28;20390;-80
2022/08/01 06:38:03;;;;;;;16.85;3.08;;;16.80;99.90;;;;;;5061217;28;20046;-81
2022/08/01 06:40:29;;;;;;;10.18;2.30;;;16.70;99.90;;;;;;5061507;28;20037;-80
2022/08/01 06:42:55;;;;;;;17.67;4.40;;;16.70;99.90;;;;;;5060099;28;20036;-80
2022/08/01 06:45:22;;;;;;;16.77;4.00;;;16.90;99.90;;;;;;5059469;28;20048;-80
2022/08/01 06:47:48;;;;;;;28.52;5.15;;;17.00;99.90;;;;;;5060693;28;20609;-79
2022/08/01 06:50:14;;;;;;;18.80;4.38;;;17.00;99.90;;;;;;5061218;28;20040;-81
2022/08/01 06:52:41;;;;;;;18.08;3.25;;;16.90;99.90;;;;;;5062784;28;20102;-78
2022/08/01 06:55:07;;;;;;;16.08;2.75;;;16.70;99.90;;;;;;5057512;28;20041;-79
2022/08/01 06:57:33;;;;;;;16.45;4.10;;;16.80;99.90;;;;;;5057302;28;20082;-91
2022/08/01 07:00:03;;;;;;;24.25;5.30;;;16.80;99.90;;;;;;5059404;28;20355;-78
2022/08/01 07:02:29;;;;;;;11.57;2.10;;;16.90;99.90;;;;;;5062150;28;20507;-79
2022/08/01 07:04:54;;;;;;;16.92;3.42;;;17.00;99.90;;;;;;5063162;28;20033;-79
2022/08/01 07:07:20;;;;;;;9.93;2.95;;;17.10;99.90;;;;;;5059073;28;20122;-77
2022/08/01 07:09:46;;;;;;;17.23;3.28;;;17.40;99.90;;;;;;5061004;28;20048;-78
2022/08/01 07:12:11;;;;;;;13.90;3.03;;;17.50;99.90;;;;;;5060543;28;20045;-77
2022/08/01 07:14:37;;;;;;;10.75;2.63;;;17.50;99.90;;;;;;5062258;28;20455;-77
2022/08/01 07:17:02;;;;;;;15.55;3.80;;;17.70;99.90;;;;;;5061161;28;20041;-77
2022/08/01 07:19:28;;;;;;;22.70;6.22;;;17.70;99.90;;;;;;5057302;28;20123;-78
2022/08/01 07:21:53;;;;;;;15.27;4.35;;;17.50;99.90;;;;;;5061576;28;20113;-77
2022/08/01 07:24:19;;;;;;;15.05;3.72;;;17.40;99.90;;;;;;5062903;28;20032;-78
2022/08/01 07:26:47;;;;;;;9.82;2.47;;;17.70;99.90;;;;;;5062267;28;20033;-77
2022/08/01 07:29:13;;;;;;;15.80;3.00;;;18.00;99.90;;;;;;5063926;28;20036;-78
2022/08/01 07:31:40;;;;;;;15.48;3.22;;;18.90;99.90;;;;;;5058781;28;20063;-78
2022/08/01 07:34:06;;;;;;;10.13;2.38;;;18.90;99.90;;;;;;5062962;28;20072;-77
2022/08/01 07:36:31;;;;;;;23.50;4.03;;;18.30;99.90;;;;;;5059746;28;20103;-76
2022/08/01 07:38:57;;;;;;;13.55;3.05;;;17.70;99.90;;;;;;5063015;28;20048;-77
2022/08/01 07:41:23;;;;;;;11.60;1.85;;;17.60;99.90;;;;;;5059948;28;20048;-77
2022/08/01 07:43:48;;;;;;;10.93;2.45;;;17.50;99.90;;;;;;5059902;28;20094;-77
2022/08/01 07:46:15;;;;;;;15.18;1.98;;;17.50;99.90;;;;;;5082667;28;20641;-78
2022/08/01 07:48:41;;;;;;;7.30;1.52;;;17.50;99.90;;;;;;5081174;28;20037;-76
2022/08/01 07:51:08;;;;;;;11.05;2.42;;;17.70;99.90;;;;;;5078685;28;20051;-80
2022/08/01 07:53:33;;;;;;;19.20;3.10;;;17.90;99.90;;;;;;5076722;28;20123;-77
2022/08/01 07:55:59;;;;;;;9.73;2.20;;;18.00;99.90;;;;;;5060437;28;20173;-80
2022/08/01 07:58:25;;;;;;;20.50;4.90;;;18.30;99.90;;;;;;5082653;28;20047;-79
2022/08/01 08:00:51;;;;;;;14.02;2.38;;;18.20;99.90;;;;;;5066071;28;20509;-77
2022/08/01 08:03:16;;;;;;;9.70;2.05;;;18.30;99.90;;;;;;5069263;28;20046;-78
2022/08/01 08:05:42;;;;;;;15.05;2.65;;;18.60;99.90;;;;;;5086303;28;20035;-73
2022/08/01 08:08:10;;;;;;;7.00;2.40;;;18.50;99.90;;;;;;5085665;28;20475;-76
2022/08/01 08:10:36;;;;;;;13.45;3.33;;;18.50;99.90;;;;;;5084054;28;20046;-74
2022/08/01 08:13:02;;;;;;;11.45;2.47;;;18.60;99.90;;;;;;5069652;28;20428;-75
2022/08/01 08:15:28;;;;;;;11.77;2.13;;;18.70;99.90;;;;;;5051696;28;20453;-76
2022/08/01 08:17:54;;;;;;;9.00;1.90;;;18.70;99.90;;;;;;5051052;28;20052;-75
2022/08/01 08:20:24;;;;;;;11.05;2.38;;;18.80;99.90;;;;;;5085602;28;20545;-75
2022/08/01 08:22:51;;;;;;;16.88;2.40;;;18.70;99.90;;;;;;5066542;28;20046;-76
2022/08/01 08:25:18;;;;;;;12.13;2.42;;;18.80;99.90;;;;;;5066077;28;20047;-75
2022/08/01 08:27:45;;;;;;;16.35;2.28;;;18.80;99.90;;;;;;5067860;28;20081;-75
2022/08/01 08:30:12;;;;;;;6.55;2.22;;;18.50;99.90;;;;;;5083887;28;20058;-75
2022/08/01 08:32:38;;;;;;;9.02;2.10;;;18.70;99.90;;;;;;5068611;28;20032;-76
2022/08/01 08:35:04;;;;;;;8.05;1.73;;;18.50;99.90;;;;;;5081797;28;20038;-75
2022/08/01 08:37:30;;;;;;;7.90;2.22;;;18.80;99.90;;;;;;5065869;28;20391;-75
2022/08/01 08:39:56;;;;;;;17.98;2.15;;;18.80;99.90;;;;;;5066344;28;20047;-75
2022/08/01 08:42:22;;;;;;;13.43;3.40;;;18.90;99.90;;;;;;5084727;28;20546;-75
2022/08/01 08:44:48;;;;;;;9.55;2.38;;;18.90;99.90;;;;;;5063924;28;20093;-75
2022/08/01 08:47:15;;;;;;;4.40;1.25;;;18.90;99.90;;;;;;5053300;28;20048;-76
2022/08/01 08:49:44;;;;;;;13.80;2.92;;;19.10;99.90;;;;;;5050641;28;20047;-76
2022/08/01 08:52:10;;;;;;;7.25;2.55;;;19.50;99.90;;;;;;5057108;28;20453;-75
2022/08/01 08:54:38;;;;;;;10.57;1.73;;;19.00;99.90;;;;;;5081126;28;20486;-74
2022/08/01 08:57:04;;;;;;;12.65;2.67;;;18.90;99.90;;;;;;5066587;28;20073;-75
2022/08/01 08:59:31;;;;;;;10.23;1.55;;;18.90;99.90;;;;;;5083632;28;20394;-75
2022/08/01 09:01:58;;;;;;;14.02;2.05;;;18.90;99.90;;;;;;5049173;28;20368;-75
2022/08/01 09:04:24;;;;;;;6.47;1.40;;;18.50;99.90;;;;;;5071107;28;20044;-76
2022/08/01 09:06:51;;;;;;;11.70;3.55;;;18.90;99.90;;;;;;5064548;28;20036;-75
2022/08/01 09:09:17;;;;;;;7.15;1.58;;;18.90;99.90;;;;;;5050983;28;20040;-75
2022/08/01 09:11:43;;;;;;;10.40;1.95;;;18.90;99.90;;;;;;5057535;28;20701;-76
2022/08/01 09:14:31;;;;;;;10.93;2.25;;;19.10;99.90;;;;;;5060716;28;20055;-76
2022/08/01 09:17:09;;;;;;;4.65;1.48;;;19.20;99.90;;;;;;5067093;28;20072;-77
2022/08/01 09:19:38;;;;;;;7.03;1.23;;;19.10;99.90;;;;;;5067497;28;20051;-76
2022/08/01 09:22:20;;;;;;;12.45;2.42;;;19.50;99.90;;;;;;5067105;28;20040;-75
2022/08/01 09:25:06;;;;;;;6.05;2.58;;;19.60;99.90;;;;;;5068669;28;20044;-76
2022/08/01 09:27:33;;;;;;;14.35;3.22;;;19.50;99.90;;;;;;5048165;28;20542;-78
2022/08/01 09:30:12;;;;;;;8.90;2.25;;;19.50;99.90;;;;;;5073230;28;20429;-77
2022/08/01 09:33:01;;;;;;;10.43;2.03;;;19.20;99.90;;;;;;5084654;28;20032;-77
2022/08/01 09:35:34;;;;;;;8.13;2.10;;;19.10;99.90;;;;;;5065461;28;20058;-77
2022/08/01 09:38:20;;;;;;;6.95;1.52;;;19.10;99.90;;;;;;5086324;28;20062;-76
2022/08/01 09:41:00;;;;;;;7.75;1.80;;;18.90;99.90;;;;;;5085092;28;20495;-76
2022/08/01 09:43:28;;;;;;;13.65;1.77;;;18.90;99.90;;;;;;5066456;28;20064;-73
2022/08/01 09:45:55;;;;;;;10.38;1.50;;;19.40;99.90;;;;;;5066544;28;20052;-76
2022/08/01 09:48:22;;;;;;;6.22;1.17;;;19.50;99.90;;;;;;5081104;28;20040;-77
2022/08/01 09:50:50;;;;;;;10.15;3.00;;;19.60;99.90;;;;;;5080796;28;20054;-81
2022/08/01 09:53:16;;;;;;;4.40;1.10;;;19.20;99.90;;;;;;5057714;28;20071;-76
2022/08/01 09:55:43;;;;;;;12.75;2.10;;;19.10;99.90;;;;;;5057040;28;20436;-76
2022/08/01 09:58:10;;;;;;;10.60;1.73;;;19.40;99.90;;;;;;5066216;28;20467;-76
2022/08/01 10:00:36;;;;;;;7.05;1.67;;;19.60;99.90;;;;;;5079977;28;20055;-76
2022/08/01 10:03:23;;;;;;;4.90;1.38;;;19.30;99.90;;;;;;5063002;28;20040;-75
2022/08/01 10:05:49;;;;;;;9.52;1.30;;;19.00;99.90;;;;;;5061779;28;20040;-75
2022/08/01 10:08:14;;;;;;;7.88;1.55;;;19.00;99.90;;;;;;5084139;28;20089;-76
2022/08/01 10:10:40;;;;;;;8.13;0.95;;;19.20;99.90;;;;;;5076426;28;20502;-76
2022/08/01 10:13:07;;;;;;;7.45;1.83;;;19.30;99.90;;;;;;5084788;28;20047;-76
2022/08/01 10:15:34;;;;;;;8.80;1.42;;;19.40;99.90;;;;;;5065084;28;20336;-75
2022/08/01 10:18:03;;;;;;;9.00;2.15;;;19.40;99.90;;;;;;5084771;28;20075;-77
2022/08/01 10:20:32;;;;;;;6.13;1.00;;;19.20;99.90;;;;;;5066474;28;20044;-76
2022/08/01 10:23:00;;;;;;;9.43;1.67;;;19.00;99.90;;;;;;5074097;28;20287;-76
2022/08/01 10:25:28;;;;;;;6.82;1.40;;;19.20;99.90;;;;;;5058339;28;20088;-76
2022/08/01 10:27:57;;;;;;;5.28;1.38;;;19.50;99.90;;;;;;5082258;28;20032;-76
2022/08/01 10:30:23;;;;;;;8.03;1.57;;;19.40;99.90;;;;;;5081328;28;20252;-75
2022/08/01 10:32:51;;;;;;;8.85;1.95;;;19.80;99.90;;;;;;5062839;28;20063;-75
2022/08/01 10:35:18;;;;;;;11.18;3.83;;;19.50;99.90;;;;;;5079545;28;20445;-75
2022/08/01 10:37:45;;;;;;;10.98;1.50;;;19.50;99.90;;;;;;5078899;28;20372;-75
2022/08/01 10:40:14;;;;;;;12.27;3.00;;;19.00;99.90;;;;;;5073622;28;20062;-79
2022/08/01 10:42:42;;;;;;;8.77;1.23;;;19.20;99.90;;;;;;5058124;28;20399;-79
2022/08/01 10:45:11;;;;;;;7.05;1.52;;;19.30;99.90;;;;;;5059007;28;20373;-80
2022/08/01 10:47:58;;;;;;;12.75;1.92;;;19.30;99.90;;;;;;5064842;28;20044;-79
2022/08/01 10:50:31;;;;;;;10.85;2.38;;;19.60;99.90;;;;;;5061870;28;20079;-79
2022/08/01 10:53:15;;;;;;;8.00;1.50;;;19.70;99.90;;;;;;5081706;28;20101;-79
2022/08/01 10:55:56;;;;;;;5.90;1.40;;;19.80;99.90;;;;;;5060980;28;20048;-80
2022/08/01 10:58:29;;;;;;;9.30;1.63;;;19.80;99.90;;;;;;5047626;28;20093;-78
2022/08/01 11:01:22;;;;;;;8.45;1.73;;;19.90;99.90;;;;;;5083186;28;20423;-79
2022/08/01 11:04:00;;;;;;;7.63;1.65;;;19.90;99.90;;;;;;5044547;28;20040;-81
2022/08/01 11:06:32;;;;;;;4.47;1.38;;;19.90;99.90;;;;;;5044055;28;20040;-79
2022/08/01 11:08:59;;;;;;;8.77;1.13;;;19.90;99.90;;;;;;5058435;28;20075;-80
2022/08/01 11:11:25;;;;;;;13.27;2.28;;;19.60;99.90;;;;;;5056104;28;20035;-79
2022/08/01 11:14:00;;;;;;;4.40;1.17;;;19.90;99.90;;;;;;5046048;28;20049;-81
2022/08/01 11:16:28;;;;;;;6.63;1.50;;;19.90;99.90;;;;;;5044302;28;20051;-81
2022/08/01 11:18:54;;;;;;;8.23;0.88;;;19.80;99.90;;;;;;5085322;28;20044;-79
2022/08/01 11:21:23;;;;;;;8.65;1.52;;;19.30;99.90;;;;;;5084207;28;20117;-80
2022/08/01 11:23:53;;;;;;;5.85;0.95;;;19.70;99.90;;;;;;5083747;28;20051;-81
2022/08/01 11:26:21;;;;;;;6.78;0.70;;;20.10;99.90;;;;;;5071588;28;20048;-81
2022/08/01 11:29:16;;;;;;;10.65;1.25;;;19.90;99.90;;;;;;5064888;28;20052;-80
2022/08/01 11:31:42;;;;;;;3.63;1.10;;;20.00;99.90;;;;;;5078347;28;20036;-79
2022/08/01 11:34:08;;;;;;;5.28;1.10;;;20.10;99.90;;;;;;5084998;28;20078;-77
2022/08/01 11:36:34;;;;;;;8.65;1.10;;;20.10;99.90;;;;;;5066429;28;20044;-79
2022/08/01 11:39:00;;;;;;;6.40;1.17;;;20.00;99.90;;;;;;5085631;28;20050;-79
2022/08/01 11:41:33;;;;;;;11.70;1.77;;;20.00;99.90;;;;;;5068519;28;20040;-78
2022/08/01 11:44:02;;;;;;;6.93;1.20;;;20.10;99.90;;;;;;5049890;28;20394;-79
2022/08/01 11:47:04;;;;;;;11.20;1.20;;;19.90;99.90;;;;;;5087942;28;20097;-77
2022/08/01 11:49:36;;;;;;;8.68;1.83;;;20.10;99.90;;;;;;4973525;28;20608;-78
2022/08/01 11:52:04;;;;;;;4.22;1.60;;;20.10;99.90;;;;;;5070456;28;20052;-77
2022/08/01 11:54:39;;;;;;;6.57;1.33;;;19.90;99.90;;;;;;5066600;28;20049;-80
2022/08/01 11:57:18;;;;;;;6.72;1.27;;;19.60;99.90;;;;;;5055472;28;20044;-78
2022/08/01 11:59:49;;;;;;;6.20;1.25;;;19.70;99.90;;;;;;5069570;28;20044;-78
2022/08/01 12:02:32;;;;;;;5.55;1.23;;;19.90;99.90;;;;;;5082046;28;20463;-81
2022/08/01 12:04:59;;;;;;;4.25;1.02;;;19.90;99.90;;;;;;5066258;28;20051;-81
2022/08/01 12:07:27;;;;;;;7.78;1.30;;;19.80;99.90;;;;;;5088420;28;20075;-80
2022/08/01 12:10:16;;;;;;;7.75;1.45;;;19.80;99.90;;;;;;5088239;28;20445;-80
2022/08/01 12:13:01;;;;;;;3.45;0.75;;;20.00;99.90;;;;;;5086921;28;20040;-79
2022/08/01 12:15:45;;;;;;;7.68;0.95;;;19.70;99.90;;;;;;5082539;28;20052;-78
2022/08/01 12:18:11;;;;;;;5.72;1.52;;;19.70;99.90;;;;;;5054367;28;20055;-80
2022/08/01 12:20:43;;;;;;;5.20;1.83;;;19.50;99.90;;;;;;5086508;28;20473;-79
2022/08/01 12:23:15;;;;;;;5.40;1.25;;;19.80;99.90;;;;;;5087655;28;20055;-79
2022/08/01 12:25:43;;;;;;;4.90;0.85;;;20.00;99.90;;;;;;5068854;28;20105;-82
2022/08/01 12:28:13;;;;;;;6.55;0.90;;;20.00;99.90;;;;;;5086755;28;20470;-80
2022/08/01 12:30:39;;;;;;;4.28;0.82;;;20.10;99.90;;;;;;5067106;28;20404;-80
2022/08/01 12:33:08;;;;;;;7.65;1.35;;;20.20;99.90;;;;;;5086641;28;20800;-81
2022/08/01 12:35:38;;;;;;;6.85;1.20;;;20.00;99.90;;;;;;5068764;28;20091;-81
2022/08/01 12:38:05;;;;;;;;;;;20.20;99.90;;;;;;5087930;28;20453;-80
2022/08/01 12:40:33;;;;;;;6.70;1.00;;;19.90;99.90;;;;;;5086648;28;19942;-81
2022/08/01 12:43:04;;;;;;;4.70;1.02;;;20.10;99.90;;;;;;5086348;28;20383;-80
2022/08/01 12:45:30;;;;;;;8.30;1.52;;;20.20;99.90;;;;;;5068282;28;20502;-88
2022/08/01 12:48:00;;;;;;;6.80;2.03;;;20.30;99.90;;;;;;5074072;28;20063;-79
2022/08/01 12:50:29;;;;;;;8.10;1.50;;;20.60;99.90;;;;;;5061991;28;20059;-79
2022/08/01 12:52:56;;;;;;;4.00;0.80;;;20.50;99.90;;;;;;5085430;28;20035;-79